RKPK/PUS METAR and TAF weather

Enter ICAO airport designator
Station Type Date Time Source
RKPK METAR 2022/08/12 15:00 UTC NOAA

RKPK 121500Z 20004KT 9999 SCT030 28/25 Q1007


Station Type Date Time Source
RKPK Decoded METAR 2022/08/12 15:00 UTC NOAA

Pusan / Kimhae International Airport, Korea, South (RKPK) 35-11N 128-56E 6M
Aug 12, 2022 - 11:00 AM EDT / 2022.08.12 1500 UTC
Wind: from the SSW (200 degrees) at 5 MPH (4 KT):0
Visibility: greater than 7 mile(s):0
Sky conditions: partly cloudy
Temperature: 82 F (28 C)
Dew Point: 77 F (25 C)
Relative Humidity: 83%
Pressure (altimeter): 29.74 in. Hg (1007 hPa)
ob: RKPK 121500Z 20004KT 9999 SCT030 28/25 Q1007
cycle: 15

Station Type Date Time Source
RKPK TAF 2022/08/12 12:06 UTC NOAA

TAF RKPK 121100Z 1212/1318 20006KT 9999 SCT030 BKN200 TN27/1221Z TX35/1306Z
TEMPO 1303/1309 22010KT BKN030

Example: see airport list